Flight Track Log - Related Links

Times and Time Zones

All times are in EDT time to prevent confusion due to time zone crossing. See the DAL3672 flight status page for this flight to view local times or setup timezone preferences in your user account.

Time Position Orientation Groundspeed Altitude Reporting Facility
EDT Latitude Longitude Course Direction KTS MPH feet Rate Location/Type
Fri 12:43:21 PM 42.9167 -71.4167 270° West 163 188 1,700  Level KA90
Fri 12:44:09 PM 42.8833 -71.4500 216° Southwest 207 238 3,900 2,713 Climbing KA90
Fri 12:45:16 PM 42.9222 -71.5497 298° West 258 297 6,900 2,646 Climbing Boston Center
Fri 12:46:00 PM 42.9500 -71.9235 270° West  Level FlightAware Approximate
Fri 12:46:16 PM 42.9542 -71.6400 296° West 269 310 9,500  Level Boston Center
Fri 12:47:00 PM 42.9501 -72.0472 270° West  Level FlightAware Approximate
Fri 12:47:16 PM 42.9589 -71.7564 273° West 288 331 11,500  Level Boston Center
Fri 12:48:00 PM 42.9500 -72.1710 270° West  Level FlightAware Approximate
Fri 12:48:16 PM 42.9658 -71.8728 275° West 311 358 13,800  Level Boston Center
Fri 12:49:16 PM 42.9728 -71.9975 274° West 327 376 15,000 600 Climbing Boston Center
Fri 12:50:16 PM 42.9836 -72.1308 276° West 347 399 15,000 50 Level Boston Center
Fri 12:51:16 PM 42.9922 -72.2725 275° West 367 422 15,100 1,250 Climbing Boston Center
Fri 12:52:16 PM 43.0006 -72.4031 275° West 367 422 17,500 2,050 Climbing Boston Center
Fri 12:53:16 PM 43.0111 -72.5339 276° West 361 415 19,200 1,800 Climbing Boston Center
Fri 12:54:16 PM 43.0131 -72.6444 271° West 340 391 21,100 1,600 Climbing Boston Center
Fri 12:55:16 PM 43.0189 -72.7694 274° West 335 386 22,400 1,150 Climbing Boston Center
Fri 12:56:16 PM 43.0247 -72.9003 274° West 340 391 23,400 1,050 Climbing Boston Center
Fri 12:57:16 PM 43.0386 -73.0508 277° West 352 405 24,500 1,050 Climbing Boston Center
Fri 12:58:16 PM 43.0461 -73.1900 274° West 363 418 25,500 1,000 Climbing Boston Center
Fri 12:59:16 PM 43.0514 -73.3267 273° West 368 423 26,500 950 Climbing Boston Center
Fri 01:00:16 PM 43.0544 -73.4631 272° West 368 423 27,400 950 Climbing Boston Center
Fri 01:01:16 PM 43.0614 -73.5967 274° West 368 423 28,400 850 Climbing Boston Center
Fri 01:02:16 PM 43.0683 -73.7361 274° West 368 423 29,100 600 Climbing Boston Center
Fri 01:03:16 PM 43.0750 -73.8697 274° West 368 423 29,600 450 Climbing Boston Center
Fri 01:04:16 PM 43.0814 -74.0092 274° West 368 423 30,000 200 Climbing Boston Center
Fri 01:05:16 PM 43.0878 -74.1517 274° West 368 423 30,000  Level Boston Center
Fri 01:06:16 PM 43.0958 -74.3025 274° West 379 436 30,000  Level Boston Center
Fri 01:07:16 PM 43.1039 -74.4506 274° West 390 449 30,000  Level Boston Center
Fri 01:08:16 PM 43.1094 -74.6017 273° West 390 449 30,000  Level Boston Center
Fri 01:09:16 PM 43.1147 -74.7497 273° West 395 455 30,000  Level Boston Center
Fri 01:10:16 PM 43.1200 -74.9006 273° West 400 460 30,000  Level Boston Center
Fri 01:11:16 PM 43.1250 -75.0544 273° West 405 466 30,000  Level Boston Center
Fri 01:12:16 PM 43.1297 -75.2056 273° West 405 466 30,000  Level Boston Center
Fri 01:13:16 PM 43.1367 -75.3453 274° West 405 466 30,000  Level Boston Center
Fri 01:14:16 PM 43.1411 -75.4964 272° West 405 466 30,000  Level Boston Center
Fri 01:15:16 PM 43.1453 -75.6475 272° West 405 466 30,000  Level Boston Center
Fri 01:16:16 PM 43.1492 -75.8014 272° West 405 466 30,000  Level Boston Center
Fri 01:17:16 PM 43.1550 -75.9525 273° West 405 466 30,000  Level Boston Center
Fri 01:19:09 PM 43.1547 -76.2569 270° West 398 458 30,000  Level Cleveland Center
Fri 01:20:09 PM 43.1433 -76.4058 264° West 398 458 30,000  Level Cleveland Center
Fri 01:21:09 PM 43.1300 -76.5575 263° West 403 464 30,000  Level Cleveland Center
Fri 01:22:09 PM 43.1194 -76.6750 263° West 403 464 30,000  Level Cleveland Center
Fri 01:23:09 PM 43.1047 -76.8550 264° West 403 464 30,000  Level Cleveland Center
Fri 01:24:09 PM 43.0906 -77.0036 263° West 403 464 30,000  Level Cleveland Center
Fri 01:25:09 PM 43.0764 -77.1525 263° West 403 464 30,000  Level Cleveland Center
Fri 01:26:09 PM 43.0656 -77.2894 264° West 408 470 30,000  Level Cleveland Center
Fri 01:27:09 PM 43.0511 -77.4381 262° West 408 470 30,000  Level Cleveland Center
Fri 01:28:09 PM 43.0364 -77.5894 262° West 408 470 30,000  Level Cleveland Center
Fri 01:29:09 PM 43.0214 -77.7378 262° West 408 470 30,000  Level Cleveland Center
Fri 01:30:09 PM 43.0061 -77.8889 262° West 408 470 30,000  Level Cleveland Center
Fri 01:31:09 PM 42.9928 -78.0372 263° West 408 470 30,000  Level Cleveland Center
Fri 01:32:09 PM 42.9772 -78.1853 262° West 408 470 30,000  Level Cleveland Center
Fri 01:33:09 PM 42.9636 -78.3392 263° West 408 470 30,000  Level Cleveland Center
Fri 01:34:09 PM 42.9478 -78.4872 262° West 408 470 30,000  Level Cleveland Center
Fri 01:35:09 PM 42.9317 -78.6381 262° West 408 470 30,000  Level Cleveland Center
Fri 01:36:09 PM 42.9111 -78.7861 259° West 407 468 30,000  Level Cleveland Center
Fri 01:37:09 PM 42.8903 -78.9311 259° West 407 468 30,000  Level Cleveland Center
Fri 01:38:09 PM 42.8672 -79.0792 258° West 402 463 30,000  Level Cleveland Center
Fri 01:39:09 PM 42.8461 -79.2211 259° West 397 457 30,000  Level Cleveland Center
Fri 01:40:09 PM 42.8289 -79.3717 261° West 397 457 30,000  Level Cleveland Center
Fri 01:41:09 PM 42.8053 -79.5136 257° West 392 451 30,000  Level Cleveland Center
Fri 01:42:09 PM 42.7817 -79.6611 258° West 392 451 30,000  Level Cleveland Center
Fri 01:43:09 PM 42.7619 -79.8056 260° West 392 451 30,000 -50 Level Cleveland Center
Fri 01:44:09 PM 42.7503 -79.9442 264° West 392 451 29,900 -650 Descending Cleveland Center
Fri 01:45:09 PM 42.7406 -80.0969 265° West 387 445 28,700 -950 Descending Cleveland Center
Fri 01:46:09 PM 42.7347 -80.2300 267° West 363 418 28,000 -350 Descending Cleveland Center
Fri 01:47:09 PM 42.7308 -80.3600 268° West 363 418 28,000  Level Cleveland Center
Fri 01:48:09 PM 42.7228 -80.4956 265° West 363 418 28,000  Level Cleveland Center
Fri 01:49:09 PM 42.7186 -80.6256 268° West 358 412 28,000  Level Cleveland Center
Fri 01:50:09 PM 42.7144 -80.7583 268° West 353 406 28,000 -200 Level Cleveland Center
Fri 01:51:09 PM 42.7058 -80.8911 265° West 353 406 27,600 -700 Descending Cleveland Center
Fri 01:52:09 PM 42.6908 -81.0211 261° West 353 406 26,600 -900 Descending Cleveland Center
Fri 01:53:09 PM 42.6778 -81.1367 261° West 348 400 25,800 -900 Descending Cleveland Center
Fri 01:54:09 PM 42.6667 -81.2581 263° West 348 400 24,800 -900 Descending Cleveland Center
Fri 01:55:09 PM 42.6511 -81.3878 261° West 348 400 24,000 -400 Descending Cleveland Center
Fri 01:56:09 PM 42.6336 -81.5200 260° West 353 406 24,000 -300 Level Cleveland Center
Fri 01:57:09 PM 42.6200 -81.6497 262° West 353 406 23,400 -1,150 Descending Cleveland Center
Fri 01:58:09 PM 42.6042 -81.7792 261° West 348 400 21,700 -1,750 Descending Cleveland Center
Fri 01:59:09 PM 42.5858 -81.9142 260° West 348 400 19,900 -1,750 Descending Cleveland Center
Fri 02:00:09 PM 42.5697 -82.0436 260° West 348 400 18,200 -1,450 Descending Cleveland Center
Fri 02:01:09 PM 42.5556 -82.1672 261° West 348 400 17,000 -1,370 Descending Cleveland Center
Fri 02:01:41 PM 42.5483 -82.2292 261° West 330 380 16,100 -1,700 Descending Cleveland Center
Fri 02:02:09 PM 42.5392 -82.2853 258° West 348 400 15,300 -1,791 Descending Cleveland Center
Fri 02:02:48 PM 42.5317 -82.3694 263° West 321 369 14,100 -1,700 Descending Cleveland Center
Fri 02:03:09 PM 42.5250 -82.4031 255° West 332 382 13,600 -1,701 Descending Cleveland Center
Fri 02:03:55 PM 42.5153 -82.4958 262° West 302 348 12,200 -1,011 Descending Cleveland Center
Fri 02:04:44 PM 42.4992 -82.5742 254° West 266 306 12,000 -162 Descending Cleveland Center
Fri 02:05:09 PM 42.4839 -82.6103 240° Southwest 289 333 12,000  Level Cleveland Center
Fri 02:05:46 PM 42.4600 -82.6631 238° Southwest 278 320 12,000  Level Cleveland Center
Fri 02:06:09 PM 42.4428 -82.7019 239° Southwest 284 327 12,000 -787 Level Cleveland Center
Fri 02:06:47 PM 42.4147 -82.7572 236° Southwest 280 322 11,200 -1,100 Descending Cleveland Center
Fri 02:07:09 PM 42.4017 -82.7847 237° Southwest 284 327 10,900 -1,082 Descending Cleveland Center
Fri 02:07:48 PM 42.3775 -82.8403 240° Southwest 240 276 10,100 -1,300 Descending Cleveland Center
Fri 02:08:09 PM 42.3667 -82.8650 239° Southwest 271 312 9,600 -2,032 Descending Cleveland Center
Fri 02:08:50 PM 42.3428 -82.9147 237° Southwest 238 274 8,000 2,400 Descending Cleveland Center
Fri 02:09:09 PM 42.3339 -82.9397 244° Southwest 254 292 12,000 -822 Climbing Cleveland Center
Fri 02:10:03 PM 42.3492 -83.0078 287° West 213 245 7,000 -3,000 Descending Cleveland Center
Fri 02:11:09 PM 42.3894 -83.0739 310° West 200 230 6,000 -569 Descending Cleveland Center
Fri 02:11:59 PM 42.4156 -83.1144 311° West 165 190 5,900 -541 Descending Cleveland Center
Fri 02:13:00 PM 42.4164 -83.1764 271° West 171 197 5,000 -732 Descending Cleveland Center
Fri 02:14:02 PM 42.3778 -83.2197 220° Southwest 176 203 4,400 -581 Descending Cleveland Center

Login

Don't have an account? Register now (free) for customized features, flight alerts, and more!